PWSweather.com
Personal Weather Stations
Station Observations
COONRAPIDS
Minneapolis, MN 55433

Minneapolis, MN 55433

Lat: 45.187721, Lon: -93.36828

Elevation: 898

Station Type: Davis Vantage Pro 2

High Low Average
Temperature 66.4°F19.1°C 29.6°F-1.3°C 48.2°F9.0°C
Dew Point 34.1°F1.2°C 23.0°F-5.0°C 28.8°F-1.8°C
Winds 5.8 mph 9.3 kmh Calm Calm 1.0 mph S1.6 kmh S
Wind Gusts 8.1 mph13.0 kmh -- 2.0 mph3.2 kmh
Humidity 88% 24% 53%
Pressure 30.23 in1023.7 mb 30.08 in1018.6 mb -
Precipitation 0.01 in0.3 mm - -
Hour Temp Dew Point Humidity Winds Wind Gusts Pressure Precip Precip Rate Daily Precip Total
12:00 AM 35.1°F1.7°C 26.3°F-3.2°C 70% Calm Calm -- 30.14 in1020.7 mb - 0.00 in0.0 mm 0.00 in0.0 mm
12:10 AM 34.9°F1.6°C 26.1°F-3.3°C 70% Calm Calm -- 30.15 in1021.0 mb - 0.00 in0.0 mm 0.00 in0.0 mm
12:20 AM 34.7°F1.5°C 26.3°F-3.2°C 71% Calm Calm -- 30.15 in1021.0 mb - 0.00 in0.0 mm 0.00 in0.0 mm
12:30 AM 34.5°F1.4°C 26.1°F-3.3°C 71% Calm Calm -- 30.15 in1021.0 mb - 0.00 in0.0 mm 0.00 in0.0 mm
12:40 AM 34.2°F1.2°C 25.8°F-3.4°C 71% Calm Calm -- 30.15 in1021.0 mb - 0.00 in0.0 mm 0.00 in0.0 mm
12:50 AM 34.0°F1.1°C 25.9°F-3.4°C 72% Calm Calm -- 30.15 in1021.0 mb - 0.00 in0.0 mm 0.00 in0.0 mm
01:00 AM 33.9°F1.1°C 25.8°F-3.4°C 72% Calm Calm -- 30.16 in1021.3 mb - 0.00 in0.0 mm 0.00 in0.0 mm
01:10 AM 33.7°F0.9°C 26.0°F-3.3°C 73% Calm Calm -- 30.16 in1021.3 mb - 0.00 in0.0 mm 0.00 in0.0 mm
01:20 AM 33.6°F0.9°C 25.8°F-3.4°C 73% Calm Calm -- 30.16 in1021.3 mb - 0.00 in0.0 mm 0.00 in0.0 mm
01:30 AM 33.4°F0.8°C 26.0°F-3.3°C 74% Calm Calm -- 30.16 in1021.3 mb - 0.00 in0.0 mm 0.00 in0.0 mm
01:40 AM 33.3°F0.7°C 25.9°F-3.4°C 74% Calm Calm -- 30.16 in1021.3 mb - 0.00 in0.0 mm 0.00 in0.0 mm
01:50 AM 33.1°F0.6°C 26.1°F-3.3°C 75% Calm Calm -- 30.16 in1021.3 mb - 0.00 in0.0 mm 0.00 in0.0 mm
02:00 AM 33.1°F0.6°C 26.0°F-3.3°C 75% Calm Calm -- 30.16 in1021.3 mb - 0.00 in0.0 mm 0.00 in0.0 mm
02:10 AM 32.8°F0.4°C 25.7°F-3.5°C 75% Calm Calm -- 30.16 in1021.3 mb - 0.00 in0.0 mm 0.00 in0.0 mm
02:20 AM 32.7°F0.4°C 26.0°F-3.3°C 76% Calm Calm -- 30.16 in1021.3 mb - 0.00 in0.0 mm 0.00 in0.0 mm
02:30 AM 33.1°F0.6°C 26.3°F-3.2°C 76% Calm Calm -- 30.17 in1021.7 mb - 0.00 in0.0 mm 0.00 in0.0 mm
02:40 AM 33.2°F0.7°C 26.1°F-3.3°C 75% Calm Calm -- 30.17 in1021.7 mb - 0.00 in0.0 mm 0.00 in0.0 mm
02:50 AM 32.9°F0.5°C 25.8°F-3.4°C 75% Calm Calm -- 30.17 in1021.7 mb - 0.00 in0.0 mm 0.00 in0.0 mm
03:00 AM 32.7°F0.4°C 26.0°F-3.3°C 76% Calm Calm -- 30.17 in1021.7 mb - 0.00 in0.0 mm 0.00 in0.0 mm
03:10 AM 32.4°F0.2°C 26.0°F-3.3°C 77% Calm Calm -- 30.17 in1021.7 mb - 0.00 in0.0 mm 0.00 in0.0 mm
03:20 AM 32.4°F0.2°C 26.3°F-3.2°C 78% Calm Calm -- 30.17 in1021.7 mb - 0.00 in0.0 mm 0.00 in0.0 mm
03:30 AM 32.2°F0.1°C 26.1°F-3.3°C 78% Calm Calm -- 30.18 in1022.0 mb - 0.00 in0.0 mm 0.00 in0.0 mm
03:40 AM 32.0°F0.0°C 26.2°F-3.2°C 79% Calm Calm -- 30.18 in1022.0 mb - 0.00 in0.0 mm 0.00 in0.0 mm
03:50 AM 31.8°F-0.1°C 26.3°F-3.2°C 80% Calm Calm -- 30.18 in1022.0 mb - 0.00 in0.0 mm 0.00 in0.0 mm
04:00 AM 31.7°F-0.2°C 26.5°F-3.1°C 81% Calm Calm -- 30.18 in1022.0 mb - 0.00 in0.0 mm 0.00 in0.0 mm
04:10 AM 31.6°F-0.2°C 26.4°F-3.1°C 81% Calm Calm -- 30.18 in1022.0 mb - 0.00 in0.0 mm 0.00 in0.0 mm
04:20 AM 31.5°F-0.3°C 26.6°F-3.0°C 82% Calm Calm -- 30.19 in1022.4 mb - 0.00 in0.0 mm 0.00 in0.0 mm
04:30 AM 31.3°F-0.4°C 26.4°F-3.1°C 82% Calm Calm -- 30.19 in1022.4 mb - 0.00 in0.0 mm 0.00 in0.0 mm
04:40 AM 31.2°F-0.4°C 26.3°F-3.2°C 82% Calm Calm -- 30.19 in1022.4 mb - 0.00 in0.0 mm 0.00 in0.0 mm
04:50 AM 31.2°F-0.4°C 26.6°F-3.0°C 83% Calm Calm -- 30.20 in1022.7 mb - 0.00 in0.0 mm 0.00 in0.0 mm
05:00 AM 31.1°F-0.5°C 26.6°F-3.0°C 83% Calm Calm -- 30.19 in1022.4 mb - 0.00 in0.0 mm 0.00 in0.0 mm
05:10 AM 31.0°F-0.6°C 26.4°F-3.1°C 83% Calm Calm -- 30.20 in1022.7 mb - 0.00 in0.0 mm 0.00 in0.0 mm
05:20 AM 30.8°F-0.7°C 26.2°F-3.2°C 83% Calm Calm -- 30.20 in1022.7 mb - 0.00 in0.0 mm 0.00 in0.0 mm
05:30 AM 30.6°F-0.8°C 26.3°F-3.2°C 84% Calm Calm -- 30.20 in1022.7 mb - 0.00 in0.0 mm 0.00 in0.0 mm
05:40 AM 30.3°F-0.9°C 26.0°F-3.3°C 84% Calm Calm -- 30.20 in1022.7 mb - 0.00 in0.0 mm 0.00 in0.0 mm
05:50 AM 30.1°F-1.1°C 25.8°F-3.4°C 84% Calm Calm -- 30.20 in1022.7 mb - 0.00 in0.0 mm 0.00 in0.0 mm
06:00 AM 29.8°F-1.2°C 25.6°F-3.6°C 84% Calm Calm -- 30.20 in1022.7 mb - 0.00 in0.0 mm 0.00 in0.0 mm
06:10 AM 29.6°F-1.3°C 25.4°F-3.7°C 84% Calm Calm -- 30.21 in1023.0 mb - 0.00 in0.0 mm 0.00 in0.0 mm
06:20 AM 29.7°F-1.3°C 25.7°F-3.5°C 85% Calm Calm -- 30.21 in1023.0 mb - 0.00 in0.0 mm 0.00 in0.0 mm
06:30 AM 29.9°F-1.2°C 25.9°F-3.4°C 85% Calm Calm -- 30.21 in1023.0 mb - 0.00 in0.0 mm 0.00 in0.0 mm
06:40 AM 30.3°F-0.9°C 26.6°F-3.0°C 86% Calm Calm -- 30.21 in1023.0 mb - 0.00 in0.0 mm 0.00 in0.0 mm
06:50 AM 30.8°F-0.7°C 27.1°F-2.7°C 86% Calm Calm -- 30.21 in1023.0 mb - 0.00 in0.0 mm 0.00 in0.0 mm
07:00 AM 31.2°F-0.4°C 27.5°F-2.5°C 86% Calm Calm -- 30.21 in1023.0 mb - 0.00 in0.0 mm 0.00 in0.0 mm
07:10 AM 32.5°F0.3°C 29.0°F-1.7°C 87% Calm Calm -- 30.21 in1023.0 mb - 0.00 in0.0 mm 0.00 in0.0 mm
07:20 AM 34.7°F1.5°C 31.5°F-0.3°C 88% Calm Calm -- 30.22 in1023.4 mb - 0.00 in0.0 mm 0.00 in0.0 mm
07:30 AM 37.9°F3.3°C 33.5°F0.8°C 84% Calm Calm -- 30.22 in1023.4 mb - 0.00 in0.0 mm 0.00 in0.0 mm
07:40 AM 40.7°F4.8°C 33.1°F0.6°C 74% Calm Calm -- 30.21 in1023.0 mb - 0.00 in0.0 mm 0.00 in0.0 mm
07:50 AM 42.4°F5.8°C 32.5°F0.3°C 68% Calm Calm -- 30.22 in1023.4 mb - 0.00 in0.0 mm 0.00 in0.0 mm
08:00 AM 44.6°F7.0°C 31.9°F-0.1°C 61% Calm Calm -- 30.22 in1023.4 mb - 0.00 in0.0 mm 0.00 in0.0 mm
08:10 AM 46.2°F7.9°C 30.4°F-0.9°C 54% Calm Calm -- 30.22 in1023.4 mb - 0.00 in0.0 mm 0.00 in0.0 mm
08:20 AM 47.7°F8.7°C 31.8°F-0.1°C 54% Calm Calm -- 30.22 in1023.4 mb - 0.00 in0.0 mm 0.00 in0.0 mm
08:30 AM 49.4°F9.7°C 30.0°F-1.1°C 47% 2.3 mph WSW3.7 kmh WSW 2.3 mph3.7 kmh 30.22 in1023.4 mb - 0.00 in0.0 mm 0.00 in0.0 mm
08:40 AM 51.3°F10.7°C 27.2°F-2.7°C 39% 2.3 mph SW3.7 kmh SW 3.5 mph5.6 kmh 30.22 in1023.4 mb - 0.00 in0.0 mm 0.00 in0.0 mm
08:50 AM 53.0°F11.7°C 24.6°F-4.1°C 33% 3.5 mph SW5.6 kmh SW 6.9 mph11.1 kmh 30.22 in1023.4 mb - 0.00 in0.0 mm 0.00 in0.0 mm
09:00 AM 53.8°F12.1°C 23.0°F-5.0°C 30% 2.3 mph SSW3.7 kmh SSW 5.8 mph9.3 kmh 30.23 in1023.7 mb - 0.00 in0.0 mm 0.00 in0.0 mm
09:10 AM 54.7°F12.6°C 23.8°F-4.6°C 30% 3.5 mph SW5.6 kmh SW 8.1 mph13.0 kmh 30.22 in1023.4 mb - 0.00 in0.0 mm 0.00 in0.0 mm
09:20 AM 55.6°F13.1°C 23.8°F-4.6°C 29% 2.3 mph S3.7 kmh S 3.5 mph5.6 kmh 30.22 in1023.4 mb - 0.00 in0.0 mm 0.00 in0.0 mm
09:30 AM 56.1°F13.4°C 23.4°F-4.8°C 28% 2.3 mph SW3.7 kmh SW 3.5 mph5.6 kmh 30.22 in1023.4 mb - 0.00 in0.0 mm 0.00 in0.0 mm
09:40 AM 56.8°F13.8°C 24.9°F-3.9°C 29% 2.3 mph W3.7 kmh W 3.5 mph5.6 kmh 30.21 in1023.0 mb - 0.00 in0.0 mm 0.00 in0.0 mm
09:50 AM 57.6°F14.2°C 23.8°F-4.6°C 27% 3.5 mph W5.6 kmh W 4.6 mph7.4 kmh 30.21 in1023.0 mb - 0.00 in0.0 mm 0.00 in0.0 mm
10:00 AM 58.1°F14.5°C 23.3°F-4.8°C 26% 2.3 mph NW3.7 kmh NW 6.9 mph11.1 kmh 30.21 in1023.0 mb - 0.00 in0.0 mm 0.00 in0.0 mm
10:10 AM 59.1°F15.1°C 24.2°F-4.3°C 26% 1.2 mph WSW1.9 kmh WSW 4.6 mph7.4 kmh 30.21 in1023.0 mb - 0.00 in0.0 mm 0.00 in0.0 mm
10:20 AM 59.6°F15.3°C 24.6°F-4.1°C 26% 2.3 mph SW3.7 kmh SW 3.5 mph5.6 kmh 30.20 in1022.7 mb - 0.00 in0.0 mm 0.00 in0.0 mm
10:30 AM 59.9°F15.5°C 23.9°F-4.5°C 25% 1.2 mph WSW1.9 kmh WSW 2.3 mph3.7 kmh 30.20 in1022.7 mb - 0.00 in0.0 mm 0.00 in0.0 mm
10:40 AM 60.2°F15.7°C 23.2°F-4.9°C 24% 3.5 mph SSW5.6 kmh SSW 4.6 mph7.4 kmh 30.20 in1022.7 mb - 0.00 in0.0 mm 0.00 in0.0 mm
10:50 AM 60.2°F15.7°C 23.3°F-4.8°C 24% 2.3 mph W3.7 kmh W 3.5 mph5.6 kmh 30.20 in1022.7 mb - 0.00 in0.0 mm 0.00 in0.0 mm
11:00 AM 60.7°F15.9°C 24.6°F-4.1°C 25% 5.8 mph W9.3 kmh W 6.9 mph11.1 kmh 30.20 in1022.7 mb - 0.00 in0.0 mm 0.00 in0.0 mm
11:10 AM 60.9°F16.1°C 24.8°F-4.0°C 25% 2.3 mph SW3.7 kmh SW 3.5 mph5.6 kmh 30.20 in1022.7 mb - 0.00 in0.0 mm 0.00 in0.0 mm
11:20 AM 61.2°F16.2°C 24.1°F-4.4°C 24% 3.5 mph W5.6 kmh W 3.5 mph5.6 kmh 30.20 in1022.7 mb - 0.00 in0.0 mm 0.00 in0.0 mm
11:30 AM 61.7°F16.5°C 24.5°F-4.2°C 24% 2.3 mph WNW3.7 kmh WNW 2.3 mph3.7 kmh 30.20 in1022.7 mb - 0.00 in0.0 mm 0.00 in0.0 mm
11:40 AM 62.1°F16.7°C 24.8°F-4.0°C 24% 4.6 mph WSW7.4 kmh WSW 5.8 mph9.3 kmh 30.20 in1022.7 mb - 0.00 in0.0 mm 0.00 in0.0 mm
11:50 AM 61.8°F16.6°C 24.6°F-4.1°C 24% 4.6 mph WSW7.4 kmh WSW 5.8 mph9.3 kmh 30.19 in1022.4 mb - 0.00 in0.0 mm 0.00 in0.0 mm
12:00 PM 62.5°F16.9°C 26.2°F-3.2°C 25% 1.2 mph WNW1.9 kmh WNW 4.6 mph7.4 kmh 30.19 in1022.4 mb - 0.00 in0.0 mm 0.00 in0.0 mm
12:10 PM 63.2°F17.3°C 25.8°F-3.4°C 24% 2.3 mph N3.7 kmh N 5.8 mph9.3 kmh 30.18 in1022.0 mb - 0.00 in0.0 mm 0.00 in0.0 mm
12:20 PM 63.3°F17.4°C 26.9°F-2.8°C 25% 2.3 mph NNW3.7 kmh NNW 4.6 mph7.4 kmh 30.18 in1022.0 mb - 0.01 in0.3 mm 0.01 in0.3 mm
12:30 PM 62.9°F17.2°C 27.5°F-2.5°C 26% 2.3 mph WSW3.7 kmh WSW 3.5 mph5.6 kmh 30.17 in1021.7 mb - 0.00 in0.0 mm 0.01 in0.3 mm
12:40 PM 63.1°F17.3°C 27.6°F-2.4°C 26% 1.2 mph NNW1.9 kmh NNW 4.6 mph7.4 kmh 30.17 in1021.7 mb - 0.00 in0.0 mm 0.01 in0.3 mm
12:50 PM 63.3°F17.4°C 25.8°F-3.4°C 24% 3.5 mph SW5.6 kmh SW 6.9 mph11.1 kmh 30.17 in1021.7 mb - 0.00 in0.0 mm 0.01 in0.3 mm
01:00 PM 63.1°F17.3°C 26.7°F-2.9°C 25% 4.6 mph NW7.4 kmh NW 6.9 mph11.1 kmh 30.16 in1021.3 mb - 0.00 in0.0 mm 0.01 in0.3 mm
01:10 PM 63.4°F17.4°C 27.9°F-2.3°C 26% 3.5 mph W5.6 kmh W 5.8 mph9.3 kmh 30.16 in1021.3 mb - 0.00 in0.0 mm 0.01 in0.3 mm
01:20 PM 63.0°F17.2°C 27.6°F-2.4°C 26% 3.5 mph N5.6 kmh N 3.5 mph5.6 kmh 30.16 in1021.3 mb - 0.00 in0.0 mm 0.01 in0.3 mm
01:30 PM 62.7°F17.1°C 28.2°F-2.1°C 27% Calm Calm -- 30.16 in1021.3 mb - 0.00 in0.0 mm 0.01 in0.3 mm
01:40 PM 62.9°F17.2°C 28.4°F-2.0°C 27% Calm Calm -- 30.16 in1021.3 mb - 0.00 in0.0 mm 0.01 in0.3 mm
01:50 PM 63.5°F17.5°C 28.0°F-2.2°C 26% 3.5 mph WSW5.6 kmh WSW 6.9 mph11.1 kmh 30.15 in1021.0 mb - 0.00 in0.0 mm 0.01 in0.3 mm
02:00 PM 63.1°F17.3°C 27.6°F-2.4°C 26% 2.3 mph WSW3.7 kmh WSW 8.1 mph13.0 kmh 30.15 in1021.0 mb - 0.00 in0.0 mm 0.01 in0.3 mm
02:10 PM 63.3°F17.4°C 27.8°F-2.3°C 26% 1.2 mph NW1.9 kmh NW -- 30.14 in1020.7 mb - 0.00 in0.0 mm 0.01 in0.3 mm
02:20 PM 64.0°F17.8°C 29.3°F-1.5°C 27% Calm Calm -- 30.14 in1020.7 mb - 0.00 in0.0 mm 0.01 in0.3 mm
02:30 PM 65.1°F18.4°C 28.4°F-2.0°C 25% 2.3 mph WNW3.7 kmh WNW 5.8 mph9.3 kmh 30.13 in1020.3 mb - 0.00 in0.0 mm 0.01 in0.3 mm
02:40 PM 66.4°F19.1°C 28.5°F-1.9°C 24% 3.5 mph NW5.6 kmh NW 6.9 mph11.1 kmh 30.13 in1020.3 mb - 0.00 in0.0 mm 0.01 in0.3 mm
02:50 PM 65.5°F18.6°C 27.7°F-2.4°C 24% Calm Calm 3.5 mph5.6 kmh 30.12 in1020.0 mb - 0.00 in0.0 mm 0.01 in0.3 mm
03:00 PM 64.0°F17.8°C 29.3°F-1.5°C 27% 2.3 mph WSW3.7 kmh WSW 4.6 mph7.4 kmh 30.13 in1020.3 mb - 0.00 in0.0 mm 0.01 in0.3 mm
03:10 PM 64.8°F18.2°C 29.1°F-1.6°C 26% Calm Calm -- 30.12 in1020.0 mb - 0.00 in0.0 mm 0.01 in0.3 mm
03:20 PM 65.4°F18.6°C 29.6°F-1.3°C 26% 2.3 mph W3.7 kmh W 4.6 mph7.4 kmh 30.12 in1020.0 mb - 0.00 in0.0 mm 0.01 in0.3 mm
03:30 PM 63.9°F17.7°C 30.1°F-1.1°C 28% 1.2 mph WSW1.9 kmh WSW 3.5 mph5.6 kmh 30.12 in1020.0 mb - 0.00 in0.0 mm 0.01 in0.3 mm
03:40 PM 64.7°F18.2°C 30.8°F-0.7°C 28% 1.2 mph NW1.9 kmh NW 5.8 mph9.3 kmh 30.12 in1020.0 mb - 0.00 in0.0 mm 0.01 in0.3 mm
03:50 PM 65.2°F18.4°C 33.0°F0.6°C 30% 2.3 mph NNE3.7 kmh NNE 8.1 mph13.0 kmh 30.12 in1020.0 mb - 0.00 in0.0 mm 0.01 in0.3 mm
04:00 PM 64.3°F17.9°C 31.4°F-0.3°C 29% 1.2 mph NW1.9 kmh NW -- 30.12 in1020.0 mb - 0.00 in0.0 mm 0.01 in0.3 mm
04:10 PM 62.7°F17.1°C 30.8°F-0.7°C 30% 1.2 mph WNW1.9 kmh WNW 1.2 mph1.9 kmh 30.12 in1020.0 mb - 0.00 in0.0 mm 0.01 in0.3 mm
04:20 PM 62.8°F17.1°C 32.4°F0.2°C 32% Calm Calm -- 30.11 in1019.6 mb - 0.00 in0.0 mm 0.01 in0.3 mm
04:30 PM 64.0°F17.8°C 31.9°F-0.1°C 30% 2.3 mph WNW3.7 kmh WNW 3.5 mph5.6 kmh 30.11 in1019.6 mb - 0.00 in0.0 mm 0.01 in0.3 mm
04:40 PM 64.3°F17.9°C 32.2°F0.1°C 30% 3.5 mph N5.6 kmh N 5.8 mph9.3 kmh 30.11 in1019.6 mb - 0.00 in0.0 mm 0.01 in0.3 mm
04:50 PM 64.1°F17.8°C 32.0°F0.0°C 30% Calm Calm -- 30.11 in1019.6 mb - 0.00 in0.0 mm 0.01 in0.3 mm
05:00 PM 64.3°F17.9°C 31.3°F-0.4°C 29% Calm Calm -- 30.11 in1019.6 mb - 0.00 in0.0 mm 0.01 in0.3 mm
05:10 PM 63.8°F17.7°C 31.7°F-0.2°C 30% Calm Calm -- 30.11 in1019.6 mb - 0.00 in0.0 mm 0.01 in0.3 mm
05:20 PM 63.6°F17.6°C 31.6°F-0.2°C 30% Calm Calm -- 30.11 in1019.6 mb - 0.00 in0.0 mm 0.01 in0.3 mm
05:30 PM 62.7°F17.1°C 31.6°F-0.2°C 31% 2.3 mph WNW3.7 kmh WNW 3.5 mph5.6 kmh 30.11 in1019.6 mb - 0.00 in0.0 mm 0.01 in0.3 mm
05:40 PM 62.0°F16.7°C 31.8°F-0.1°C 32% 1.2 mph WNW1.9 kmh WNW 3.5 mph5.6 kmh 30.11 in1019.6 mb - 0.00 in0.0 mm 0.01 in0.3 mm
05:50 PM 61.1°F16.2°C 31.8°F-0.1°C 33% Calm Calm -- 30.12 in1020.0 mb - 0.00 in0.0 mm 0.01 in0.3 mm
06:00 PM 60.6°F15.9°C 32.8°F0.4°C 35% Calm Calm -- 30.11 in1019.6 mb - 0.00 in0.0 mm 0.01 in0.3 mm
06:10 PM 60.0°F15.6°C 32.2°F0.1°C 35% Calm Calm -- 30.11 in1019.6 mb - 0.00 in0.0 mm 0.01 in0.3 mm
06:20 PM 59.5°F15.3°C 33.2°F0.7°C 37% Calm Calm -- 30.11 in1019.6 mb - 0.00 in0.0 mm 0.01 in0.3 mm
06:30 PM 58.9°F14.9°C 33.3°F0.7°C 38% Calm Calm -- 30.11 in1019.6 mb - 0.00 in0.0 mm 0.01 in0.3 mm
06:40 PM 58.2°F14.6°C 33.9°F1.1°C 40% Calm Calm -- 30.11 in1019.6 mb - 0.00 in0.0 mm 0.01 in0.3 mm
06:50 PM 57.0°F13.9°C 32.9°F0.5°C 40% Calm Calm -- 30.11 in1019.6 mb - 0.00 in0.0 mm 0.01 in0.3 mm
07:00 PM 55.8°F13.2°C 33.0°F0.6°C 42% Calm Calm -- 30.10 in1019.3 mb - 0.00 in0.0 mm 0.01 in0.3 mm
07:10 PM 54.5°F12.5°C 33.0°F0.6°C 44% Calm Calm -- 30.10 in1019.3 mb - 0.00 in0.0 mm 0.01 in0.3 mm
07:20 PM 53.2°F11.8°C 33.4°F0.8°C 47% Calm Calm -- 30.09 in1019.0 mb - 0.00 in0.0 mm 0.01 in0.3 mm
07:30 PM 52.1°F11.2°C 33.0°F0.6°C 48% Calm Calm -- 30.09 in1019.0 mb - 0.00 in0.0 mm 0.01 in0.3 mm
07:40 PM 51.0°F10.6°C 34.0°F1.1°C 52% Calm Calm -- 30.09 in1019.0 mb - 0.00 in0.0 mm 0.01 in0.3 mm
07:50 PM 50.1°F10.1°C 34.1°F1.2°C 54% Calm Calm -- 30.10 in1019.3 mb - 0.00 in0.0 mm 0.01 in0.3 mm
08:00 PM 49.5°F9.7°C 34.0°F1.1°C 55% Calm Calm -- 30.10 in1019.3 mb - 0.00 in0.0 mm 0.01 in0.3 mm
08:10 PM 48.9°F9.4°C 33.9°F1.1°C 56% Calm Calm -- 30.10 in1019.3 mb - 0.00 in0.0 mm 0.01 in0.3 mm
08:20 PM 48.6°F9.2°C 34.0°F1.1°C 57% Calm Calm -- 30.10 in1019.3 mb - 0.00 in0.0 mm 0.01 in0.3 mm
08:30 PM 48.1°F8.9°C 34.0°F1.1°C 58% Calm Calm -- 30.10 in1019.3 mb - 0.00 in0.0 mm 0.01 in0.3 mm
08:40 PM 47.4°F8.6°C 33.3°F0.7°C 58% Calm Calm -- 30.10 in1019.3 mb - 0.00 in0.0 mm 0.01 in0.3 mm
08:50 PM 46.6°F8.1°C 33.4°F0.8°C 60% Calm Calm -- 30.10 in1019.3 mb - 0.00 in0.0 mm 0.01 in0.3 mm
09:00 PM 46.0°F7.8°C 33.7°F0.9°C 62% Calm Calm -- 30.11 in1019.6 mb - 0.00 in0.0 mm 0.01 in0.3 mm
09:10 PM 45.4°F7.4°C 33.1°F0.6°C 62% Calm Calm -- 30.11 in1019.6 mb - 0.00 in0.0 mm 0.01 in0.3 mm
09:20 PM 44.9°F7.2°C 33.5°F0.8°C 64% Calm Calm -- 30.11 in1019.6 mb - 0.00 in0.0 mm 0.01 in0.3 mm
09:30 PM 44.5°F6.9°C 33.5°F0.8°C 65% Calm Calm -- 30.10 in1019.3 mb - 0.00 in0.0 mm 0.01 in0.3 mm
09:40 PM 44.2°F6.8°C 33.6°F0.9°C 66% Calm Calm -- 30.10 in1019.3 mb - 0.00 in0.0 mm 0.01 in0.3 mm
09:50 PM 43.7°F6.5°C 33.1°F0.6°C 66% Calm Calm -- 30.10 in1019.3 mb - 0.00 in0.0 mm 0.01 in0.3 mm
10:00 PM 43.2°F6.2°C 33.3°F0.7°C 68% Calm Calm -- 30.10 in1019.3 mb - 0.00 in0.0 mm 0.01 in0.3 mm
10:10 PM 43.0°F6.1°C 33.2°F0.7°C 68% Calm Calm -- 30.10 in1019.3 mb - 0.00 in0.0 mm 0.01 in0.3 mm
10:20 PM 42.6°F5.9°C 33.2°F0.7°C 69% Calm Calm -- 30.09 in1019.0 mb - 0.00 in0.0 mm 0.01 in0.3 mm
10:30 PM 42.1°F5.6°C 33.1°F0.6°C 70% Calm Calm -- 30.10 in1019.3 mb - 0.00 in0.0 mm 0.01 in0.3 mm
10:40 PM 41.7°F5.4°C 33.0°F0.6°C 71% Calm Calm -- 30.09 in1019.0 mb - 0.00 in0.0 mm 0.01 in0.3 mm
10:50 PM 41.3°F5.2°C 32.9°F0.5°C 72% Calm Calm -- 30.09 in1019.0 mb - 0.00 in0.0 mm 0.01 in0.3 mm
11:00 PM 41.1°F5.1°C 33.1°F0.6°C 73% Calm Calm -- 30.09 in1019.0 mb - 0.00 in0.0 mm 0.01 in0.3 mm
11:10 PM 41.0°F5.0°C 33.0°F0.6°C 73% Calm Calm -- 30.08 in1018.6 mb - 0.00 in0.0 mm 0.01 in0.3 mm
11:20 PM 40.8°F4.9°C 33.2°F0.7°C 74% Calm Calm -- 30.08 in1018.6 mb - 0.00 in0.0 mm 0.01 in0.3 mm
11:30 PM 40.5°F4.7°C 32.9°F0.5°C 74% Calm Calm -- 30.08 in1018.6 mb - 0.00 in0.0 mm 0.01 in0.3 mm
11:40 PM 40.1°F4.5°C 32.8°F0.4°C 75% Calm Calm -- 30.08 in1018.6 mb - 0.00 in0.0 mm 0.01 in0.3 mm
11:50 PM 39.9°F4.4°C 32.6°F0.3°C 75% Calm Calm -- 30.08 in1018.6 mb - 0.00 in0.0 mm 0.01 in0.3 mm